sensor_id;sensor_type;location;lat;lon;timestamp;temperature;humidity
20568;DHT22;10442;49.932;11.592;2023-12-20T00:01:18;8.20;77.80
20568;DHT22;10442;49.932;11.592;2023-12-20T00:03:46;8.20;77.80
20568;DHT22;10442;49.932;11.592;2023-12-20T00:06:15;8.20;77.70
20568;DHT22;10442;49.932;11.592;2023-12-20T00:08:44;8.20;77.80
20568;DHT22;10442;49.932;11.592;2023-12-20T00:11:11;8.30;77.80
20568;DHT22;10442;49.932;11.592;2023-12-20T00:13:40;8.30;77.80
20568;DHT22;10442;49.932;11.592;2023-12-20T00:16:07;8.30;77.80
20568;DHT22;10442;49.932;11.592;2023-12-20T00:18:35;8.30;77.70
20568;DHT22;10442;49.932;11.592;2023-12-20T00:21:03;8.30;77.90
20568;DHT22;10442;49.932;11.592;2023-12-20T00:23:30;8.30;77.90
20568;DHT22;10442;49.932;11.592;2023-12-20T00:25:58;8.30;77.90
20568;DHT22;10442;49.932;11.592;2023-12-20T00:28:26;8.20;77.90
20568;DHT22;10442;49.932;11.592;2023-12-20T00:30:54;8.30;78.00
20568;DHT22;10442;49.932;11.592;2023-12-20T00:33:23;8.30;78.10
20568;DHT22;10442;49.932;11.592;2023-12-20T00:35:50;8.30;78.30
20568;DHT22;10442;49.932;11.592;2023-12-20T00:38:18;8.30;78.30
20568;DHT22;10442;49.932;11.592;2023-12-20T00:40:46;8.30;78.30
20568;DHT22;10442;49.932;11.592;2023-12-20T00:43:14;8.30;79.10
20568;DHT22;10442;49.932;11.592;2023-12-20T00:45:43;8.30;78.50
20568;DHT22;10442;49.932;11.592;2023-12-20T00:48:10;8.30;78.50
20568;DHT22;10442;49.932;11.592;2023-12-20T00:50:39;8.30;78.50
20568;DHT22;10442;49.932;11.592;2023-12-20T00:53:06;8.20;78.50
20568;DHT22;10442;49.932;11.592;2023-12-20T00:55:34;8.20;78.80
20568;DHT22;10442;49.932;11.592;2023-12-20T00:58:01;8.20;78.70
20568;DHT22;10442;49.932;11.592;2023-12-20T01:00:29;8.20;79.50
20568;DHT22;10442;49.932;11.592;2023-12-20T01:02:57;8.20;78.90
20568;DHT22;10442;49.932;11.592;2023-12-20T01:05:26;8.10;78.60
20568;DHT22;10442;49.932;11.592;2023-12-20T01:07:55;8.20;78.80
20568;DHT22;10442;49.932;11.592;2023-12-20T01:10:22;8.10;78.70
20568;DHT22;10442;49.932;11.592;2023-12-20T01:12:51;8.10;78.70
20568;DHT22;10442;49.932;11.592;2023-12-20T01:15:19;8.20;78.70
20568;DHT22;10442;49.932;11.592;2023-12-20T01:17:48;8.20;78.70
20568;DHT22;10442;49.932;11.592;2023-12-20T01:20:16;8.10;78.60
20568;DHT22;10442;49.932;11.592;2023-12-20T01:22:44;8.10;78.60
20568;DHT22;10442;49.932;11.592;2023-12-20T01:25:14;8.10;78.60
20568;DHT22;10442;49.932;11.592;2023-12-20T01:27:41;8.10;78.70
20568;DHT22;10442;49.932;11.592;2023-12-20T01:30:09;8.10;78.70
20568;DHT22;10442;49.932;11.592;2023-12-20T01:32:37;8.10;78.70
20568;DHT22;10442;49.932;11.592;2023-12-20T01:35:05;8.10;78.60
20568;DHT22;10442;49.932;11.592;2023-12-20T01:37:32;8.10;78.60
20568;DHT22;10442;49.932;11.592;2023-12-20T01:40:00;8.10;78.60
20568;DHT22;10442;49.932;11.592;2023-12-20T01:42:29;8.10;78.60
20568;DHT22;10442;49.932;11.592;2023-12-20T01:44:56;8.10;78.60
20568;DHT22;10442;49.932;11.592;2023-12-20T01:47:24;8.10;78.60
20568;DHT22;10442;49.932;11.592;2023-12-20T01:49:51;8.10;78.60
20568;DHT22;10442;49.932;11.592;2023-12-20T01:52:20;8.10;78.70
20568;DHT22;10442;49.932;11.592;2023-12-20T01:54:48;8.10;78.70
20568;DHT22;10442;49.932;11.592;2023-12-20T01:57:16;8.10;78.60
20568;DHT22;10442;49.932;11.592;2023-12-20T01:59:44;8.10;78.60
20568;DHT22;10442;49.932;11.592;2023-12-20T02:02:12;8.10;78.60
20568;DHT22;10442;49.932;11.592;2023-12-20T02:04:40;8.10;78.60
20568;DHT22;10442;49.932;11.592;2023-12-20T02:07:08;8.10;78.70
20568;DHT22;10442;49.932;11.592;2023-12-20T02:09:38;8.10;78.70
20568;DHT22;10442;49.932;11.592;2023-12-20T02:12:06;8.10;78.70
20568;DHT22;10442;49.932;11.592;2023-12-20T02:14:34;8.00;78.60
20568;DHT22;10442;49.932;11.592;2023-12-20T02:17:02;8.00;78.60
20568;DHT22;10442;49.932;11.592;2023-12-20T02:19:30;8.00;78.70
20568;DHT22;10442;49.932;11.592;2023-12-20T02:22:10;8.00;78.70
20568;DHT22;10442;49.932;11.592;2023-12-20T02:24:38;8.00;78.80
20568;DHT22;10442;49.932;11.592;2023-12-20T02:27:07;7.90;78.70
20568;DHT22;10442;49.932;11.592;2023-12-20T02:29:35;7.90;78.70
20568;DHT22;10442;49.932;11.592;2023-12-20T02:32:04;7.90;78.70
20568;DHT22;10442;49.932;11.592;2023-12-20T02:34:31;7.90;78.70
20568;DHT22;10442;49.932;11.592;2023-12-20T02:36:59;7.90;78.60
20568;DHT22;10442;49.932;11.592;2023-12-20T02:39:27;7.90;78.60
20568;DHT22;10442;49.932;11.592;2023-12-20T02:41:54;7.90;78.60
20568;DHT22;10442;49.932;11.592;2023-12-20T02:44:22;7.90;78.60
20568;DHT22;10442;49.932;11.592;2023-12-20T02:46:49;7.90;78.60
20568;DHT22;10442;49.932;11.592;2023-12-20T02:49:17;7.90;78.70
20568;DHT22;10442;49.932;11.592;2023-12-20T02:51:45;7.90;78.60
20568;DHT22;10442;49.932;11.592;2023-12-20T02:54:13;7.90;78.60
20568;DHT22;10442;49.932;11.592;2023-12-20T02:56:44;7.90;78.60
20568;DHT22;10442;49.932;11.592;2023-12-20T02:59:12;7.90;78.60
20568;DHT22;10442;49.932;11.592;2023-12-20T03:01:44;7.90;78.60
20568;DHT22;10442;49.932;11.592;2023-12-20T03:04:12;7.80;78.70
20568;DHT22;10442;49.932;11.592;2023-12-20T03:06:40;7.80;78.60
20568;DHT22;10442;49.932;11.592;2023-12-20T03:09:07;7.90;78.70
20568;DHT22;10442;49.932;11.592;2023-12-20T03:11:35;7.80;78.70
20568;DHT22;10442;49.932;11.592;2023-12-20T03:14:03;7.80;78.70
20568;DHT22;10442;49.932;11.592;2023-12-20T03:16:31;7.80;78.60
20568;DHT22;10442;49.932;11.592;2023-12-20T03:19:02;7.80;78.50
20568;DHT22;10442;49.932;11.592;2023-12-20T03:21:30;7.80;78.40
20568;DHT22;10442;49.932;11.592;2023-12-20T03:23:57;7.80;78.50
20568;DHT22;10442;49.932;11.592;2023-12-20T03:26:25;7.80;78.50
20568;DHT22;10442;49.932;11.592;2023-12-20T03:28:52;7.80;78.80
20568;DHT22;10442;49.932;11.592;2023-12-20T03:31:21;7.80;78.70
20568;DHT22;10442;49.932;11.592;2023-12-20T03:33:49;7.70;78.50
20568;DHT22;10442;49.932;11.592;2023-12-20T03:36:18;7.70;78.70
20568;DHT22;10442;49.932;11.592;2023-12-20T03:38:45;7.70;78.70
20568;DHT22;10442;49.932;11.592;2023-12-20T03:41:14;7.70;78.70
20568;DHT22;10442;49.932;11.592;2023-12-20T03:43:41;7.70;78.80
20568;DHT22;10442;49.932;11.592;2023-12-20T03:46:09;7.70;78.80
20568;DHT22;10442;49.932;11.592;2023-12-20T03:48:36;7.70;78.80
20568;DHT22;10442;49.932;11.592;2023-12-20T03:51:04;7.70;78.80
20568;DHT22;10442;49.932;11.592;2023-12-20T03:53:32;7.70;78.70
20568;DHT22;10442;49.932;11.592;2023-12-20T03:56:00;7.70;78.70
20568;DHT22;10442;49.932;11.592;2023-12-20T03:58:27;7.70;78.90
20568;DHT22;10442;49.932;11.592;2023-12-20T04:00:55;7.70;79.00
20568;DHT22;10442;49.932;11.592;2023-12-20T04:03:22;7.60;78.90
20568;DHT22;10442;49.932;11.592;2023-12-20T04:05:49;7.70;79.00
20568;DHT22;10442;49.932;11.592;2023-12-20T04:08:18;7.70;78.90
20568;DHT22;10442;49.932;11.592;2023-12-20T04:10:45;7.70;78.90
20568;DHT22;10442;49.932;11.592;2023-12-20T04:13:12;7.70;78.90
20568;DHT22;10442;49.932;11.592;2023-12-20T04:15:40;7.70;78.80
20568;DHT22;10442;49.932;11.592;2023-12-20T04:18:08;7.70;78.70
20568;DHT22;10442;49.932;11.592;2023-12-20T04:20:36;7.60;78.70
20568;DHT22;10442;49.932;11.592;2023-12-20T04:23:03;7.60;78.80
20568;DHT22;10442;49.932;11.592;2023-12-20T04:25:31;7.60;78.80
20568;DHT22;10442;49.932;11.592;2023-12-20T04:27:58;7.60;78.80
20568;DHT22;10442;49.932;11.592;2023-12-20T04:30:26;7.60;78.80
20568;DHT22;10442;49.932;11.592;2023-12-20T04:32:54;7.60;78.70
20568;DHT22;10442;49.932;11.592;2023-12-20T04:35:22;7.60;78.70
20568;DHT22;10442;49.932;11.592;2023-12-20T04:37:50;7.60;78.70
20568;DHT22;10442;49.932;11.592;2023-12-20T04:40:17;7.60;78.70
20568;DHT22;10442;49.932;11.592;2023-12-20T04:42:45;7.60;78.50
20568;DHT22;10442;49.932;11.592;2023-12-20T04:45:13;7.60;78.60
20568;DHT22;10442;49.932;11.592;2023-12-20T04:47:43;7.60;78.60
20568;DHT22;10442;49.932;11.592;2023-12-20T04:50:10;7.50;78.70
20568;DHT22;10442;49.932;11.592;2023-12-20T04:52:40;7.50;78.70
20568;DHT22;10442;49.932;11.592;2023-12-20T04:55:08;7.50;78.70
20568;DHT22;10442;49.932;11.592;2023-12-20T04:57:37;7.50;78.80
20568;DHT22;10442;49.932;11.592;2023-12-20T05:00:05;7.50;78.80
20568;DHT22;10442;49.932;11.592;2023-12-20T05:02:33;7.50;78.90
20568;DHT22;10442;49.932;11.592;2023-12-20T05:05:00;7.50;79.00
20568;DHT22;10442;49.932;11.592;2023-12-20T05:07:27;7.40;78.90
20568;DHT22;10442;49.932;11.592;2023-12-20T05:09:56;7.50;78.90
20568;DHT22;10442;49.932;11.592;2023-12-20T05:12:24;7.50;79.00
20568;DHT22;10442;49.932;11.592;2023-12-20T05:14:52;7.50;79.00
20568;DHT22;10442;49.932;11.592;2023-12-20T05:17:19;7.40;79.00
20568;DHT22;10442;49.932;11.592;2023-12-20T05:19:47;7.40;79.00
20568;DHT22;10442;49.932;11.592;2023-12-20T05:22:15;7.40;79.00
20568;DHT22;10442;49.932;11.592;2023-12-20T05:24:42;7.40;79.00
20568;DHT22;10442;49.932;11.592;2023-12-20T05:27:10;7.40;79.00
20568;DHT22;10442;49.932;11.592;2023-12-20T05:29:39;7.40;79.00
20568;DHT22;10442;49.932;11.592;2023-12-20T05:32:07;7.40;79.00
20568;DHT22;10442;49.932;11.592;2023-12-20T05:34:34;7.40;79.00
20568;DHT22;10442;49.932;11.592;2023-12-20T05:37:02;7.30;79.00
20568;DHT22;10442;49.932;11.592;2023-12-20T05:39:30;7.40;79.30
20568;DHT22;10442;49.932;11.592;2023-12-20T05:42:00;7.30;79.20
20568;DHT22;10442;49.932;11.592;2023-12-20T05:44:29;7.30;79.10
20568;DHT22;10442;49.932;11.592;2023-12-20T05:46:57;7.30;79.00
20568;DHT22;10442;49.932;11.592;2023-12-20T05:49:25;7.40;79.10
20568;DHT22;10442;49.932;11.592;2023-12-20T05:51:53;7.40;79.10
20568;DHT22;10442;49.932;11.592;2023-12-20T05:54:23;7.40;79.10
20568;DHT22;10442;49.932;11.592;2023-12-20T05:56:50;7.40;79.10
20568;DHT22;10442;49.932;11.592;2023-12-20T05:59:18;7.40;79.10
20568;DHT22;10442;49.932;11.592;2023-12-20T06:01:46;7.40;79.10
20568;DHT22;10442;49.932;11.592;2023-12-20T06:04:14;7.40;79.10
20568;DHT22;10442;49.932;11.592;2023-12-20T06:06:42;7.40;79.10
20568;DHT22;10442;49.932;11.592;2023-12-20T06:09:11;7.40;79.30
20568;DHT22;10442;49.932;11.592;2023-12-20T06:11:40;7.40;79.30
20568;DHT22;10442;49.932;11.592;2023-12-20T06:14:08;7.40;79.30
20568;DHT22;10442;49.932;11.592;2023-12-20T06:16:35;7.40;79.40
20568;DHT22;10442;49.932;11.592;2023-12-20T06:19:02;7.40;79.50
20568;DHT22;10442;49.932;11.592;2023-12-20T06:21:31;7.40;80.30
20568;DHT22;10442;49.932;11.592;2023-12-20T06:24:00;7.40;79.50
20568;DHT22;10442;49.932;11.592;2023-12-20T06:26:28;7.40;79.60
20568;DHT22;10442;49.932;11.592;2023-12-20T06:28:57;7.40;79.70
20568;DHT22;10442;49.932;11.592;2023-12-20T06:31:24;7.40;79.90
20568;DHT22;10442;49.932;11.592;2023-12-20T06:33:52;7.40;80.10
20568;DHT22;10442;49.932;11.592;2023-12-20T06:36:26;7.40;80.10
20568;DHT22;10442;49.932;11.592;2023-12-20T06:38:54;7.40;80.10
20568;DHT22;10442;49.932;11.592;2023-12-20T06:41:21;7.40;80.00
20568;DHT22;10442;49.932;11.592;2023-12-20T06:43:52;7.50;80.00
20568;DHT22;10442;49.932;11.592;2023-12-20T06:46:21;7.50;80.10
20568;DHT22;10442;49.932;11.592;2023-12-20T06:48:49;7.50;80.00
20568;DHT22;10442;49.932;11.592;2023-12-20T06:51:17;7.50;80.00
20568;DHT22;10442;49.932;11.592;2023-12-20T06:53:48;7.50;80.00
20568;DHT22;10442;49.932;11.592;2023-12-20T06:56:16;7.50;80.00
20568;DHT22;10442;49.932;11.592;2023-12-20T06:58:47;7.50;80.10
20568;DHT22;10442;49.932;11.592;2023-12-20T07:01:15;7.50;80.30
20568;DHT22;10442;49.932;11.592;2023-12-20T07:03:44;7.50;80.10
20568;DHT22;10442;49.932;11.592;2023-12-20T07:06:11;7.50;80.10
20568;DHT22;10442;49.932;11.592;2023-12-20T07:08:44;7.50;80.30
20568;DHT22;10442;49.932;11.592;2023-12-20T07:11:13;7.50;80.30
20568;DHT22;10442;49.932;11.592;2023-12-20T07:13:44;7.40;80.40
20568;DHT22;10442;49.932;11.592;2023-12-20T07:16:11;7.50;80.60
20568;DHT22;10442;49.932;11.592;2023-12-20T07:18:39;7.50;80.60
20568;DHT22;10442;49.932;11.592;2023-12-20T07:21:06;7.50;80.70
20568;DHT22;10442;49.932;11.592;2023-12-20T07:23:38;7.50;80.70
20568;DHT22;10442;49.932;11.592;2023-12-20T07:26:05;7.50;80.70
20568;DHT22;10442;49.932;11.592;2023-12-20T07:28:34;7.50;80.70
20568;DHT22;10442;49.932;11.592;2023-12-20T07:31:04;7.50;80.70
20568;DHT22;10442;49.932;11.592;2023-12-20T07:33:34;7.50;80.60
20568;DHT22;10442;49.932;11.592;2023-12-20T07:36:07;7.50;80.70
20568;DHT22;10442;49.932;11.592;2023-12-20T07:38:35;7.50;80.60
20568;DHT22;10442;49.932;11.592;2023-12-20T07:41:03;7.60;80.60
20568;DHT22;10442;49.932;11.592;2023-12-20T07:43:31;7.60;80.60
20568;DHT22;10442;49.932;11.592;2023-12-20T07:46:07;7.60;80.60
20568;DHT22;10442;49.932;11.592;2023-12-20T07:48:35;7.60;80.50
20568;DHT22;10442;49.932;11.592;2023-12-20T07:51:04;7.60;80.40
20568;DHT22;10442;49.932;11.592;2023-12-20T07:53:34;7.60;80.10
20568;DHT22;10442;49.932;11.592;2023-12-20T07:56:06;7.60;79.90
20568;DHT22;10442;49.932;11.592;2023-12-20T07:58:40;7.60;80.00
20568;DHT22;10442;49.932;11.592;2023-12-20T08:01:19;7.60;79.90
20568;DHT22;10442;49.932;11.592;2023-12-20T08:03:52;7.60;79.90
20568;DHT22;10442;49.932;11.592;2023-12-20T08:06:21;7.50;80.00
20568;DHT22;10442;49.932;11.592;2023-12-20T08:08:50;7.60;80.10
20568;DHT22;10442;49.932;11.592;2023-12-20T08:11:30;7.60;80.20
20568;DHT22;10442;49.932;11.592;2023-12-20T08:13:59;7.60;80.20
20568;DHT22;10442;49.932;11.592;2023-12-20T08:16:26;7.70;80.10
20568;DHT22;10442;49.932;11.592;2023-12-20T08:18:54;7.70;79.70
20568;DHT22;10442;49.932;11.592;2023-12-20T08:21:24;7.70;79.40
20568;DHT22;10442;49.932;11.592;2023-12-20T08:23:53;7.80;79.50
20568;DHT22;10442;49.932;11.592;2023-12-20T08:26:21;7.80;79.70
20568;DHT22;10442;49.932;11.592;2023-12-20T08:28:52;7.80;80.00
20568;DHT22;10442;49.932;11.592;2023-12-20T08:31:20;7.80;79.90
20568;DHT22;10442;49.932;11.592;2023-12-20T08:33:49;7.90;80.00
20568;DHT22;10442;49.932;11.592;2023-12-20T08:36:17;8.10;79.90
20568;DHT22;10442;49.932;11.592;2023-12-20T08:38:45;8.10;79.50
20568;DHT22;10442;49.932;11.592;2023-12-20T08:41:14;8.10;79.10
20568;DHT22;10442;49.932;11.592;2023-12-20T08:43:43;8.20;78.80
20568;DHT22;10442;49.932;11.592;2023-12-20T08:46:14;8.20;78.60
20568;DHT22;10442;49.932;11.592;2023-12-20T08:48:42;8.20;78.40
20568;DHT22;10442;49.932;11.592;2023-12-20T08:51:10;8.30;78.40
20568;DHT22;10442;49.932;11.592;2023-12-20T08:53:38;8.30;78.30
20568;DHT22;10442;49.932;11.592;2023-12-20T08:56:05;8.30;78.30
20568;DHT22;10442;49.932;11.592;2023-12-20T08:58:34;8.30;78.60
20568;DHT22;10442;49.932;11.592;2023-12-20T09:01:04;8.30;78.60
20568;DHT22;10442;49.932;11.592;2023-12-20T09:03:34;8.30;78.50
20568;DHT22;10442;49.932;11.592;2023-12-20T09:06:03;8.30;78.30
20568;DHT22;10442;49.932;11.592;2023-12-20T09:08:31;8.40;78.30
20568;DHT22;10442;49.932;11.592;2023-12-20T09:11:00;8.40;78.00
20568;DHT22;10442;49.932;11.592;2023-12-20T09:13:28;8.40;77.90
20568;DHT22;10442;49.932;11.592;2023-12-20T09:15:57;8.40;77.80
20568;DHT22;10442;49.932;11.592;2023-12-20T09:18:25;8.40;77.90
20568;DHT22;10442;49.932;11.592;2023-12-20T09:20:53;8.40;78.10
20568;DHT22;10442;49.932;11.592;2023-12-20T09:23:20;8.40;78.10
20568;DHT22;10442;49.932;11.592;2023-12-20T09:25:51;8.40;77.80
20568;DHT22;10442;49.932;11.592;2023-12-20T09:28:23;8.50;77.60
20568;DHT22;10442;49.932;11.592;2023-12-20T09:30:52;8.50;77.60
20568;DHT22;10442;49.932;11.592;2023-12-20T09:33:19;8.40;77.30
20568;DHT22;10442;49.932;11.592;2023-12-20T09:35:48;8.50;77.30
20568;DHT22;10442;49.932;11.592;2023-12-20T09:38:15;8.50;77.20
20568;DHT22;10442;49.932;11.592;2023-12-20T09:40:45;8.50;76.90
20568;DHT22;10442;49.932;11.592;2023-12-20T09:43:19;8.50;77.10
20568;DHT22;10442;49.932;11.592;2023-12-20T09:45:47;8.50;77.50
20568;DHT22;10442;49.932;11.592;2023-12-20T09:48:18;8.60;77.20
20568;DHT22;10442;49.932;11.592;2023-12-20T09:50:45;8.60;76.90
20568;DHT22;10442;49.932;11.592;2023-12-20T09:53:21;8.70;77.20
20568;DHT22;10442;49.932;11.592;2023-12-20T09:55:53;8.80;77.30
20568;DHT22;10442;49.932;11.592;2023-12-20T09:58:20;8.90;77.20
20568;DHT22;10442;49.932;11.592;2023-12-20T10:00:48;8.90;76.70
20568;DHT22;10442;49.932;11.592;2023-12-20T10:03:23;8.90;76.00
20568;DHT22;10442;49.932;11.592;2023-12-20T10:05:54;8.90;75.70
20568;DHT22;10442;49.932;11.592;2023-12-20T10:08:24;8.90;75.50
20568;DHT22;10442;49.932;11.592;2023-12-20T10:10:52;8.90;75.60
20568;DHT22;10442;49.932;11.592;2023-12-20T10:13:20;8.90;75.80
20568;DHT22;10442;49.932;11.592;2023-12-20T10:15:49;9.00;75.40
20568;DHT22;10442;49.932;11.592;2023-12-20T10:18:17;9.00;75.80
20568;DHT22;10442;49.932;11.592;2023-12-20T10:20:45;9.00;75.10
20568;DHT22;10442;49.932;11.592;2023-12-20T10:23:15;9.00;75.00
20568;DHT22;10442;49.932;11.592;2023-12-20T10:25:43;9.00;74.70
20568;DHT22;10442;49.932;11.592;2023-12-20T10:28:16;9.00;74.80
20568;DHT22;10442;49.932;11.592;2023-12-20T10:30:50;9.00;74.90
20568;DHT22;10442;49.932;11.592;2023-12-20T10:33:27;9.10;74.80
20568;DHT22;10442;49.932;11.592;2023-12-20T10:35:56;9.10;74.70
20568;DHT22;10442;49.932;11.592;2023-12-20T10:38:23;9.20;74.30
20568;DHT22;10442;49.932;11.592;2023-12-20T10:40:56;9.20;74.00
20568;DHT22;10442;49.932;11.592;2023-12-20T10:43:28;9.20;73.70
20568;DHT22;10442;49.932;11.592;2023-12-20T10:45:57;9.20;73.10
20568;DHT22;10442;49.932;11.592;2023-12-20T10:48:27;9.20;73.30
20568;DHT22;10442;49.932;11.592;2023-12-20T10:50:58;9.30;73.40
20568;DHT22;10442;49.932;11.592;2023-12-20T10:53:25;9.30;73.40
20568;DHT22;10442;49.932;11.592;2023-12-20T10:55:55;9.30;73.40
20568;DHT22;10442;49.932;11.592;2023-12-20T10:58:24;9.20;73.30
20568;DHT22;10442;49.932;11.592;2023-12-20T11:01:00;9.20;73.10
20568;DHT22;10442;49.932;11.592;2023-12-20T11:03:34;9.20;72.90
20568;DHT22;10442;49.932;11.592;2023-12-20T11:06:33;9.20;72.40
20568;DHT22;10442;49.932;11.592;2023-12-20T11:09:17;9.20;73.10
20568;DHT22;10442;49.932;11.592;2023-12-20T11:15:06;9.20;73.30
20568;DHT22;10442;49.932;11.592;2023-12-20T11:17:39;9.20;73.20
20568;DHT22;10442;49.932;11.592;2023-12-20T11:20:08;9.10;72.60
20568;DHT22;10442;49.932;11.592;2023-12-20T11:22:53;9.10;73.00
20568;DHT22;10442;49.932;11.592;2023-12-20T11:25:21;9.10;73.00
20568;DHT22;10442;49.932;11.592;2023-12-20T11:28:09;9.20;73.30
20568;DHT22;10442;49.932;11.592;2023-12-20T11:30:52;9.20;73.40
20568;DHT22;10442;49.932;11.592;2023-12-20T11:33:24;9.10;73.40
20568;DHT22;10442;49.932;11.592;2023-12-20T11:35:56;9.10;73.20
20568;DHT22;10442;49.932;11.592;2023-12-20T11:38:25;9.00;72.60
20568;DHT22;10442;49.932;11.592;2023-12-20T11:40:54;8.90;72.90
20568;DHT22;10442;49.932;11.592;2023-12-20T11:43:30;8.90;73.10
20568;DHT22;10442;49.932;11.592;2023-12-20T11:46:08;8.90;73.60
20568;DHT22;10442;49.932;11.592;2023-12-20T11:48:38;8.90;73.70
20568;DHT22;10442;49.932;11.592;2023-12-20T11:51:11;8.80;73.80
20568;DHT22;10442;49.932;11.592;2023-12-20T11:53:40;8.80;74.20
20568;DHT22;10442;49.932;11.592;2023-12-20T11:56:09;8.80;74.30
20568;DHT22;10442;49.932;11.592;2023-12-20T11:58:37;8.80;74.30
20568;DHT22;10442;49.932;11.592;2023-12-20T12:01:06;8.80;74.50
20568;DHT22;10442;49.932;11.592;2023-12-20T12:03:36;8.70;74.60
20568;DHT22;10442;49.932;11.592;2023-12-20T12:06:06;8.70;75.00
20568;DHT22;10442;49.932;11.592;2023-12-20T12:08:36;8.70;75.20
20568;DHT22;10442;49.932;11.592;2023-12-20T12:11:04;8.60;75.20
20568;DHT22;10442;49.932;11.592;2023-12-20T12:13:33;8.60;75.40
20568;DHT22;10442;49.932;11.592;2023-12-20T12:16:01;8.60;75.50
20568;DHT22;10442;49.932;11.592;2023-12-20T12:18:30;8.60;75.70
20568;DHT22;10442;49.932;11.592;2023-12-20T12:21:00;8.50;75.90
20568;DHT22;10442;49.932;11.592;2023-12-20T12:23:29;8.50;76.00
20568;DHT22;10442;49.932;11.592;2023-12-20T12:25:57;8.60;76.20
20568;DHT22;10442;49.932;11.592;2023-12-20T12:28:28;8.60;76.30
20568;DHT22;10442;49.932;11.592;2023-12-20T12:30:57;8.60;75.80
20568;DHT22;10442;49.932;11.592;2023-12-20T12:33:25;8.60;75.80
20568;DHT22;10442;49.932;11.592;2023-12-20T12:35:54;8.70;75.70
20568;DHT22;10442;49.932;11.592;2023-12-20T12:38:24;8.70;75.80
20568;DHT22;10442;49.932;11.592;2023-12-20T12:40:53;8.80;75.60
20568;DHT22;10442;49.932;11.592;2023-12-20T12:43:22;8.70;75.20
20568;DHT22;10442;49.932;11.592;2023-12-20T12:45:53;8.80;75.00
20568;DHT22;10442;49.932;11.592;2023-12-20T12:48:20;8.80;75.00
20568;DHT22;10442;49.932;11.592;2023-12-20T12:50:50;8.80;74.90
20568;DHT22;10442;49.932;11.592;2023-12-20T12:53:19;8.80;74.90
20568;DHT22;10442;49.932;11.592;2023-12-20T12:55:47;8.80;74.80
20568;DHT22;10442;49.932;11.592;2023-12-20T12:58:16;8.70;74.70
20568;DHT22;10442;49.932;11.592;2023-12-20T13:00:44;8.70;74.50
20568;DHT22;10442;49.932;11.592;2023-12-20T13:03:14;8.70;74.30
20568;DHT22;10442;49.932;11.592;2023-12-20T13:05:42;8.60;74.10
20568;DHT22;10442;49.932;11.592;2023-12-20T13:08:13;8.70;74.40
20568;DHT22;10442;49.932;11.592;2023-12-20T13:10:41;8.60;74.30
20568;DHT22;10442;49.932;11.592;2023-12-20T13:13:09;8.70;74.30
20568;DHT22;10442;49.932;11.592;2023-12-20T13:15:38;8.60;74.10
20568;DHT22;10442;49.932;11.592;2023-12-20T13:18:08;8.70;74.10
20568;DHT22;10442;49.932;11.592;2023-12-20T13:20:36;8.60;74.00
20568;DHT22;10442;49.932;11.592;2023-12-20T13:23:07;8.60;73.60
20568;DHT22;10442;49.932;11.592;2023-12-20T13:25:35;8.60;73.30
20568;DHT22;10442;49.932;11.592;2023-12-20T13:28:03;8.60;73.40
20568;DHT22;10442;49.932;11.592;2023-12-20T13:30:32;8.50;73.60
20568;DHT22;10442;49.932;11.592;2023-12-20T13:33:00;8.50;73.60
20568;DHT22;10442;49.932;11.592;2023-12-20T13:35:28;8.40;73.80
20568;DHT22;10442;49.932;11.592;2023-12-20T13:37:56;8.40;74.00
20568;DHT22;10442;49.932;11.592;2023-12-20T13:40:24;8.40;74.00
20568;DHT22;10442;49.932;11.592;2023-12-20T13:42:51;8.40;74.20
20568;DHT22;10442;49.932;11.592;2023-12-20T13:45:19;8.30;74.20
20568;DHT22;10442;49.932;11.592;2023-12-20T13:47:47;8.40;74.40
20568;DHT22;10442;49.932;11.592;2023-12-20T13:50:15;8.30;74.20
20568;DHT22;10442;49.932;11.592;2023-12-20T13:52:44;8.30;74.10
20568;DHT22;10442;49.932;11.592;2023-12-20T13:55:12;8.30;74.30
20568;DHT22;10442;49.932;11.592;2023-12-20T13:57:40;8.30;74.20
20568;DHT22;10442;49.932;11.592;2023-12-20T14:00:24;8.30;74.20
20568;DHT22;10442;49.932;11.592;2023-12-20T14:02:52;8.20;74.30
20568;DHT22;10442;49.932;11.592;2023-12-20T14:05:20;8.20;74.50
20568;DHT22;10442;49.932;11.592;2023-12-20T14:07:56;8.30;74.80
20568;DHT22;10442;49.932;11.592;2023-12-20T14:10:28;8.20;74.50
20568;DHT22;10442;49.932;11.592;2023-12-20T14:12:56;8.20;74.70
20568;DHT22;10442;49.932;11.592;2023-12-20T14:15:25;8.20;74.90
20568;DHT22;10442;49.932;11.592;2023-12-20T14:17:54;8.20;74.90
20568;DHT22;10442;49.932;11.592;2023-12-20T14:20:22;8.30;74.90
20568;DHT22;10442;49.932;11.592;2023-12-20T14:22:49;8.30;74.80
20568;DHT22;10442;49.932;11.592;2023-12-20T14:25:17;8.20;74.80
20568;DHT22;10442;49.932;11.592;2023-12-20T14:27:45;8.20;74.70
20568;DHT22;10442;49.932;11.592;2023-12-20T14:30:14;8.20;74.70
20568;DHT22;10442;49.932;11.592;2023-12-20T14:32:42;8.20;74.70
20568;DHT22;10442;49.932;11.592;2023-12-20T14:35:10;8.20;74.90
20568;DHT22;10442;49.932;11.592;2023-12-20T14:37:38;8.20;74.80
20568;DHT22;10442;49.932;11.592;2023-12-20T14:40:10;8.20;74.80
20568;DHT22;10442;49.932;11.592;2023-12-20T14:42:44;8.20;74.80
20568;DHT22;10442;49.932;11.592;2023-12-20T14:45:13;8.10;74.80
20568;DHT22;10442;49.932;11.592;2023-12-20T14:47:42;8.20;74.90
20568;DHT22;10442;49.932;11.592;2023-12-20T14:50:10;8.10;75.00
20568;DHT22;10442;49.932;11.592;2023-12-20T14:52:45;8.20;75.10
20568;DHT22;10442;49.932;11.592;2023-12-20T14:55:14;8.20;75.20
20568;DHT22;10442;49.932;11.592;2023-12-20T14:57:41;8.20;75.20
20568;DHT22;10442;49.932;11.592;2023-12-20T15:00:11;8.20;75.20
20568;DHT22;10442;49.932;11.592;2023-12-20T15:02:46;8.10;75.20
20568;DHT22;10442;49.932;11.592;2023-12-20T15:05:13;8.10;75.20
20568;DHT22;10442;49.932;11.592;2023-12-20T15:07:44;8.10;75.20
20568;DHT22;10442;49.932;11.592;2023-12-20T15:10:13;8.00;75.20
20568;DHT22;10442;49.932;11.592;2023-12-20T15:12:42;8.00;75.50
20568;DHT22;10442;49.932;11.592;2023-12-20T15:15:12;8.00;75.70
20568;DHT22;10442;49.932;11.592;2023-12-20T15:17:40;7.90;75.80
20568;DHT22;10442;49.932;11.592;2023-12-20T15:20:09;7.80;75.80
20568;DHT22;10442;49.932;11.592;2023-12-20T15:22:38;7.80;75.90
20568;DHT22;10442;49.932;11.592;2023-12-20T15:25:07;7.80;76.10
20568;DHT22;10442;49.932;11.592;2023-12-20T15:27:36;7.80;76.20
20568;DHT22;10442;49.932;11.592;2023-12-20T15:30:07;7.70;75.90
20568;DHT22;10442;49.932;11.592;2023-12-20T15:32:38;7.70;76.10
20568;DHT22;10442;49.932;11.592;2023-12-20T15:35:06;7.60;76.00
20568;DHT22;10442;49.932;11.592;2023-12-20T15:37:34;7.60;76.00
20568;DHT22;10442;49.932;11.592;2023-12-20T15:40:03;7.60;76.00
20568;DHT22;10442;49.932;11.592;2023-12-20T15:42:33;7.60;76.10
20568;DHT22;10442;49.932;11.592;2023-12-20T15:45:05;7.60;76.00